Argo — SMOH — position and weather

sailwx.info

Track history (hours):
 
Tides and Currents Weather Stations Pressure Air Temp Water Temp Dewpoint Dewpoint Depression Visibility Wind Speed Wind Dir Waves Ship Positions

Argo

Last reported at 2017-Nov-15 12:06 UTC. Time now 2017-Nov-19 12:34 UTC.
Position N 58°57' E 018°09'.

Length 26 m.

Type: Military. MMSI: 265591600.

Date/timePositionNaut miles runAvg speedWind from/ knotsBaromVisibWave heightAir tempDewpointWater temp
2017-Nov-15 12:06N 58°57' E 018°09'218.4
2017-Nov-15 12:00N 58°56' E 018°06'3514.9
2017-Nov-15 09:41N 58°40' E 017°07'1 1.9
2017-Nov-15 09:25N 58°39' E 017°08'16 1.1
2017-Nov-14 18:40N 58°24' E 016°57'210.0
2017-Nov-14 18:26N 58°26' E 016°57'4 8.5
2017-Nov-14 18:01N 58°30' E 016°56'4 8.7
2017-Nov-14 17:31N 58°33' E 016°50'0 0.1
2017-Nov-14 17:00N 58°33' E 016°50'0 0.0
2017-Nov-14 16:30N 58°33' E 016°50'0 0.4
2017-Nov-14 15:59N 58°33' E 016°50'4 7.8
2017-Nov-14 15:31N 58°36' E 016°56'510.4
2017-Nov-14 15:00N 58°30' E 016°55'  
2017-Nov-08 15:34N 56°09' E 015°35'0 0.0
2017-Nov-08 15:28N 56°09' E 015°35'0 0.4
2017-Nov-08 15:00N 56°09' E 015°35'713.6
2017-Nov-08 14:30N 56°08' E 015°47'5 9.1
2017-Nov-08 14:00N 56°03' E 015°51'3 6.5
2017-Nov-08 13:30N 56°05' E 015°55'2 3.3
2017-Nov-08 13:00N 56°04' E 015°55'3 5.0
2017-Nov-08 12:30N 56°06' E 015°55'0 0.8
2017-Nov-08 12:00N 56°06' E 015°56'1 1.3
2017-Nov-08 11:30N 56°06' E 015°56'3 5.1
2017-Nov-08 11:00N 56°06' E 015°60'2 4.0
2017-Nov-08 10:30N 56°08' E 015°58'0 0.9
2017-Nov-08 10:00N 56°08' E 015°59'1 1.4
2017-Nov-08 09:30N 56°08' E 015°59'1 1.2
2017-Nov-08 09:00N 56°08' E 015°59'1 1.0
2017-Nov-08 08:30N 56°07' E 015°59'1 1.5
2017-Nov-08 08:01N 56°08' E 015°58'612.7
2017-Nov-08 07:30N 56°05' E 015°49'5 9.1
2017-Nov-08 07:00N 56°08' E 015°45'5 0.4
2017-Nov-07 16:00N 56°09' E 015°35'510.4
2017-Nov-07 15:30N 56°04' E 015°36'918.0
2017-Nov-07 15:00N 56°02' E 015°52'713.5
2017-Nov-07 14:31N 56°08' E 015°59'2 3.5
2017-Nov-07 14:01N 56°06' E 015°60'2 3.8
2017-Nov-07 13:30N 56°08' E 015°59'0 0.2
2017-Nov-07 13:00N 56°08' E 015°59'612.3
2017-Nov-07 12:31N 56°08' E 016°10'0 0.2
2017-Nov-07 12:00N 56°08' E 016°10'0 0.2
2017-Nov-07 11:30N 56°08' E 016°09'0 0.1
2017-Nov-07 11:00N 56°08' E 016°09'0 0.1
2017-Nov-07 10:30N 56°08' E 016°09'2 3.0
2017-Nov-07 10:00N 56°09' E 016°08'2 3.4
2017-Nov-07 09:30N 56°10' E 016°05'1 1.1
2017-Nov-07 09:00N 56°09' E 016°05'1 1.7
2017-Nov-07 08:30N 56°10' E 016°05'918.4
2017-Nov-07 08:00N 56°03' E 015°53'817.1
2017-Nov-07 07:31N 56°03' E 015°38'612.1
2017-Nov-07 06:59N 56°09' E 015°35'  
Track history (hours):
 
Tides and Currents Weather Stations Pressure Air Temp Water Temp Dewpoint Dewpoint Depression Visibility Wind Speed Wind Dir Waves Ship Positions

Argo

Last reported at 2017-Nov-15 12:06 UTC. Time now 2017-Nov-19 12:34 UTC.
Position N 58°57' E 018°09'.

Length 26 m.

Type: Military. MMSI: 265591600.

Date/timePositionNaut miles runAvg speedWind from/ knotsBaromVisibWave heightAir tempDewpointWater temp
2017-Nov-15 12:06N 58°57' E 018°09'218.4
2017-Nov-15 12:00N 58°56' E 018°06'3514.9
2017-Nov-15 09:41N 58°40' E 017°07'1 1.9
2017-Nov-15 09:25N 58°39' E 017°08'16 1.1
2017-Nov-14 18:40N 58°24' E 016°57'210.0
2017-Nov-14 18:26N 58°26' E 016°57'4 8.5
2017-Nov-14 18:01N 58°30' E 016°56'4 8.7
2017-Nov-14 17:31N 58°33' E 016°50'0 0.1
2017-Nov-14 17:00N 58°33' E 016°50'0 0.0
2017-Nov-14 16:30N 58°33' E 016°50'0 0.4
2017-Nov-14 15:59N 58°33' E 016°50'4 7.8
2017-Nov-14 15:31N 58°36' E 016°56'510.4
2017-Nov-14 15:00N 58°30' E 016°55'  
2017-Nov-08 15:34N 56°09' E 015°35'0 0.0
2017-Nov-08 15:28N 56°09' E 015°35'0 0.4
2017-Nov-08 15:00N 56°09' E 015°35'713.6
2017-Nov-08 14:30N 56°08' E 015°47'5 9.1
2017-Nov-08 14:00N 56°03' E 015°51'3 6.5
2017-Nov-08 13:30N 56°05' E 015°55'2 3.3
2017-Nov-08 13:00N 56°04' E 015°55'3 5.0
2017-Nov-08 12:30N 56°06' E 015°55'0 0.8
2017-Nov-08 12:00N 56°06' E 015°56'1 1.3
2017-Nov-08 11:30N 56°06' E 015°56'3 5.1
2017-Nov-08 11:00N 56°06' E 015°60'2 4.0
2017-Nov-08 10:30N 56°08' E 015°58'0 0.9
2017-Nov-08 10:00N 56°08' E 015°59'1 1.4
2017-Nov-08 09:30N 56°08' E 015°59'1 1.2
2017-Nov-08 09:00N 56°08' E 015°59'1 1.0
2017-Nov-08 08:30N 56°07' E 015°59'1 1.5
2017-Nov-08 08:01N 56°08' E 015°58'612.7
2017-Nov-08 07:30N 56°05' E 015°49'5 9.1
2017-Nov-08 07:00N 56°08' E 015°45'5 0.4
2017-Nov-07 16:00N 56°09' E 015°35'510.4
2017-Nov-07 15:30N 56°04' E 015°36'918.0
2017-Nov-07 15:00N 56°02' E 015°52'713.5
2017-Nov-07 14:31N 56°08' E 015°59'2 3.5
2017-Nov-07 14:01N 56°06' E 015°60'2 3.8
2017-Nov-07 13:30N 56°08' E 015°59'0 0.2
2017-Nov-07 13:00N 56°08' E 015°59'612.3
2017-Nov-07 12:31N 56°08' E 016°10'0 0.2
2017-Nov-07 12:00N 56°08' E 016°10'0 0.2
2017-Nov-07 11:30N 56°08' E 016°09'0 0.1
2017-Nov-07 11:00N 56°08' E 016°09'0 0.1
2017-Nov-07 10:30N 56°08' E 016°09'2 3.0
2017-Nov-07 10:00N 56°09' E 016°08'2 3.4
2017-Nov-07 09:30N 56°10' E 016°05'1 1.1
2017-Nov-07 09:00N 56°09' E 016°05'1 1.7
2017-Nov-07 08:30N 56°10' E 016°05'918.4
2017-Nov-07 08:00N 56°03' E 015°53'817.1
2017-Nov-07 07:31N 56°03' E 015°38'612.1
2017-Nov-07 06:59N 56°09' E 015°35'  

Dump ship's entire track history